sensor_id;sensor_type;location;lat;lon;timestamp;P1;durP1;ratioP1;P2;durP2;ratioP2
24147;SDS011;12309;51.450;-2.624;2023-05-20T00:01:03;24.83;;;7.47;;
24147;SDS011;12309;51.450;-2.624;2023-05-20T00:03:29;19.88;;;7.00;;
24147;SDS011;12309;51.450;-2.624;2023-05-20T00:05:55;29.30;;;7.22;;
24147;SDS011;12309;51.450;-2.624;2023-05-20T00:08:20;23.48;;;6.63;;
24147;SDS011;12309;51.450;-2.624;2023-05-20T00:10:46;23.70;;;7.53;;
24147;SDS011;12309;51.450;-2.624;2023-05-20T00:13:11;25.88;;;7.18;;
24147;SDS011;12309;51.450;-2.624;2023-05-20T00:15:37;32.30;;;7.50;;
24147;SDS011;12309;51.450;-2.624;2023-05-20T00:18:03;27.52;;;7.55;;
24147;SDS011;12309;51.450;-2.624;2023-05-20T00:20:28;22.42;;;7.20;;
24147;SDS011;12309;51.450;-2.624;2023-05-20T00:22:55;21.98;;;7.05;;
24147;SDS011;12309;51.450;-2.624;2023-05-20T00:25:20;29.52;;;8.27;;
24147;SDS011;12309;51.450;-2.624;2023-05-20T00:27:46;27.63;;;8.05;;
24147;SDS011;12309;51.450;-2.624;2023-05-20T00:30:12;34.72;;;7.90;;
24147;SDS011;12309;51.450;-2.624;2023-05-20T00:32:38;27.63;;;7.90;;
24147;SDS011;12309;51.450;-2.624;2023-05-20T00:35:04;29.70;;;7.07;;
24147;SDS011;12309;51.450;-2.624;2023-05-20T00:37:30;28.70;;;8.35;;
24147;SDS011;12309;51.450;-2.624;2023-05-20T00:39:55;25.17;;;6.82;;
24147;SDS011;12309;51.450;-2.624;2023-05-20T00:42:21;33.00;;;7.53;;
24147;SDS011;12309;51.450;-2.624;2023-05-20T00:44:48;25.27;;;7.35;;
24147;SDS011;12309;51.450;-2.624;2023-05-20T00:47:17;25.65;;;8.73;;
24147;SDS011;12309;51.450;-2.624;2023-05-20T00:49:45;30.92;;;7.70;;
24147;SDS011;12309;51.450;-2.624;2023-05-20T00:52:13;24.85;;;7.90;;
24147;SDS011;12309;51.450;-2.624;2023-05-20T00:54:39;28.10;;;8.48;;
24147;SDS011;12309;51.450;-2.624;2023-05-20T00:57:05;26.25;;;8.55;;
24147;SDS011;12309;51.450;-2.624;2023-05-20T00:59:35;24.35;;;7.40;;
24147;SDS011;12309;51.450;-2.624;2023-05-20T01:02:02;22.33;;;7.82;;
24147;SDS011;12309;51.450;-2.624;2023-05-20T01:04:31;24.40;;;7.75;;
24147;SDS011;12309;51.450;-2.624;2023-05-20T01:06:57;30.77;;;8.73;;
24147;SDS011;12309;51.450;-2.624;2023-05-20T01:09:25;28.65;;;8.50;;
24147;SDS011;12309;51.450;-2.624;2023-05-20T01:11:55;26.90;;;8.48;;
24147;SDS011;12309;51.450;-2.624;2023-05-20T01:14:28;28.65;;;8.98;;
24147;SDS011;12309;51.450;-2.624;2023-05-20T01:16:56;27.33;;;8.82;;
24147;SDS011;12309;51.450;-2.624;2023-05-20T01:19:30;32.22;;;9.35;;
24147;SDS011;12309;51.450;-2.624;2023-05-20T01:22:08;24.88;;;8.68;;
24147;SDS011;12309;51.450;-2.624;2023-05-20T01:24:40;31.42;;;9.02;;
24147;SDS011;12309;51.450;-2.624;2023-05-20T01:27:12;31.13;;;9.45;;
24147;SDS011;12309;51.450;-2.624;2023-05-20T01:29:39;28.40;;;9.30;;
24147;SDS011;12309;51.450;-2.624;2023-05-20T01:32:07;28.40;;;8.68;;
24147;SDS011;12309;51.450;-2.624;2023-05-20T01:34:35;27.30;;;8.57;;
24147;SDS011;12309;51.450;-2.624;2023-05-20T01:37:03;25.45;;;8.63;;
24147;SDS011;12309;51.450;-2.624;2023-05-20T01:39:31;30.27;;;8.57;;
24147;SDS011;12309;51.450;-2.624;2023-05-20T01:42:00;24.15;;;7.45;;
24147;SDS011;12309;51.450;-2.624;2023-05-20T01:44:26;24.80;;;7.82;;
24147;SDS011;12309;51.450;-2.624;2023-05-20T01:46:52;20.92;;;7.93;;
24147;SDS011;12309;51.450;-2.624;2023-05-20T01:49:18;20.58;;;7.65;;
24147;SDS011;12309;51.450;-2.624;2023-05-20T01:51:43;20.35;;;7.13;;
24147;SDS011;12309;51.450;-2.624;2023-05-20T01:54:09;21.33;;;7.07;;
24147;SDS011;12309;51.450;-2.624;2023-05-20T01:56:35;17.10;;;6.07;;
24147;SDS011;12309;51.450;-2.624;2023-05-20T01:59:00;16.27;;;6.13;;
24147;SDS011;12309;51.450;-2.624;2023-05-20T02:01:26;18.67;;;5.60;;
24147;SDS011;12309;51.450;-2.624;2023-05-20T02:03:52;13.10;;;5.30;;
24147;SDS011;12309;51.450;-2.624;2023-05-20T02:06:17;13.87;;;5.70;;
24147;SDS011;12309;51.450;-2.624;2023-05-20T02:08:43;12.73;;;5.40;;
24147;SDS011;12309;51.450;-2.624;2023-05-20T02:11:08;18.50;;;5.60;;
24147;SDS011;12309;51.450;-2.624;2023-05-20T02:13:34;12.82;;;4.65;;
24147;SDS011;12309;51.450;-2.624;2023-05-20T02:16:00;14.37;;;4.87;;
24147;SDS011;12309;51.450;-2.624;2023-05-20T02:18:25;18.07;;;5.30;;
24147;SDS011;12309;51.450;-2.624;2023-05-20T02:20:51;13.27;;;5.45;;
24147;SDS011;12309;51.450;-2.624;2023-05-20T02:23:17;9.13;;;4.90;;
24147;SDS011;12309;51.450;-2.624;2023-05-20T02:25:43;11.85;;;5.10;;
24147;SDS011;12309;51.450;-2.624;2023-05-20T02:28:09;8.33;;;4.73;;
24147;SDS011;12309;51.450;-2.624;2023-05-20T02:30:38;10.97;;;4.50;;
24147;SDS011;12309;51.450;-2.624;2023-05-20T02:33:03;12.80;;;4.90;;
24147;SDS011;12309;51.450;-2.624;2023-05-20T02:35:30;9.13;;;4.60;;
24147;SDS011;12309;51.450;-2.624;2023-05-20T02:37:56;11.97;;;4.70;;
24147;SDS011;12309;51.450;-2.624;2023-05-20T02:40:22;14.00;;;5.03;;
24147;SDS011;12309;51.450;-2.624;2023-05-20T02:42:47;11.57;;;5.67;;
24147;SDS011;12309;51.450;-2.624;2023-05-20T02:45:13;12.40;;;4.67;;
24147;SDS011;12309;51.450;-2.624;2023-05-20T02:47:38;11.30;;;5.10;;
24147;SDS011;12309;51.450;-2.624;2023-05-20T02:50:04;13.07;;;5.30;;
24147;SDS011;12309;51.450;-2.624;2023-05-20T02:52:31;16.90;;;5.10;;
24147;SDS011;12309;51.450;-2.624;2023-05-20T02:54:57;12.53;;;5.37;;
24147;SDS011;12309;51.450;-2.624;2023-05-20T02:57:22;9.20;;;4.73;;
24147;SDS011;12309;51.450;-2.624;2023-05-20T02:59:48;14.03;;;5.20;;
24147;SDS011;12309;51.450;-2.624;2023-05-20T03:02:14;12.07;;;5.03;;
24147;SDS011;12309;51.450;-2.624;2023-05-20T03:04:39;11.63;;;5.10;;
24147;SDS011;12309;51.450;-2.624;2023-05-20T03:07:05;12.17;;;5.00;;
24147;SDS011;12309;51.450;-2.624;2023-05-20T03:09:34;14.40;;;5.33;;
24147;SDS011;12309;51.450;-2.624;2023-05-20T03:11:59;11.73;;;5.07;;
24147;SDS011;12309;51.450;-2.624;2023-05-20T03:14:25;12.60;;;5.00;;
24147;SDS011;12309;51.450;-2.624;2023-05-20T03:16:52;15.03;;;5.40;;
24147;SDS011;12309;51.450;-2.624;2023-05-20T03:19:19;13.47;;;5.07;;
24147;SDS011;12309;51.450;-2.624;2023-05-20T03:21:45;16.80;;;5.30;;
24147;SDS011;12309;51.450;-2.624;2023-05-20T03:24:11;14.70;;;5.23;;
24147;SDS011;12309;51.450;-2.624;2023-05-20T03:26:37;12.67;;;5.60;;
24147;SDS011;12309;51.450;-2.624;2023-05-20T03:29:07;12.20;;;5.20;;
24147;SDS011;12309;51.450;-2.624;2023-05-20T03:31:33;14.40;;;4.90;;
24147;SDS011;12309;51.450;-2.624;2023-05-20T03:33:59;18.23;;;5.17;;
24147;SDS011;12309;51.450;-2.624;2023-05-20T03:36:25;10.50;;;4.90;;
24147;SDS011;12309;51.450;-2.624;2023-05-20T03:38:50;14.13;;;5.07;;
24147;SDS011;12309;51.450;-2.624;2023-05-20T03:41:17;14.73;;;5.33;;
24147;SDS011;12309;51.450;-2.624;2023-05-20T03:43:43;11.63;;;4.93;;
24147;SDS011;12309;51.450;-2.624;2023-05-20T03:46:08;11.03;;;5.07;;
24147;SDS011;12309;51.450;-2.624;2023-05-20T03:48:34;11.57;;;4.57;;
24147;SDS011;12309;51.450;-2.624;2023-05-20T03:51:00;13.17;;;5.10;;
24147;SDS011;12309;51.450;-2.624;2023-05-20T03:53:26;13.50;;;4.83;;
24147;SDS011;12309;51.450;-2.624;2023-05-20T03:55:52;13.13;;;5.40;;
24147;SDS011;12309;51.450;-2.624;2023-05-20T03:58:17;10.53;;;5.00;;
24147;SDS011;12309;51.450;-2.624;2023-05-20T04:00:44;14.60;;;5.10;;
24147;SDS011;12309;51.450;-2.624;2023-05-20T04:03:11;12.40;;;5.17;;
24147;SDS011;12309;51.450;-2.624;2023-05-20T04:05:37;16.10;;;5.80;;
24147;SDS011;12309;51.450;-2.624;2023-05-20T04:08:02;9.93;;;5.43;;
24147;SDS011;12309;51.450;-2.624;2023-05-20T04:10:29;16.07;;;6.77;;
24147;SDS011;12309;51.450;-2.624;2023-05-20T04:12:56;16.33;;;6.27;;
24147;SDS011;12309;51.450;-2.624;2023-05-20T04:15:22;14.67;;;6.53;;
24147;SDS011;12309;51.450;-2.624;2023-05-20T04:17:49;17.10;;;6.90;;
24147;SDS011;12309;51.450;-2.624;2023-05-20T04:20:16;18.77;;;7.17;;
24147;SDS011;12309;51.450;-2.624;2023-05-20T04:22:42;15.13;;;6.90;;
24147;SDS011;12309;51.450;-2.624;2023-05-20T04:25:08;15.97;;;7.57;;
24147;SDS011;12309;51.450;-2.624;2023-05-20T04:27:34;17.73;;;7.30;;
24147;SDS011;12309;51.450;-2.624;2023-05-20T04:30:01;17.30;;;7.20;;
24147;SDS011;12309;51.450;-2.624;2023-05-20T04:32:28;15.03;;;7.43;;
24147;SDS011;12309;51.450;-2.624;2023-05-20T04:34:54;19.47;;;7.57;;
24147;SDS011;12309;51.450;-2.624;2023-05-20T04:37:20;16.80;;;8.30;;
24147;SDS011;12309;51.450;-2.624;2023-05-20T04:39:46;15.63;;;7.43;;
24147;SDS011;12309;51.450;-2.624;2023-05-20T04:42:14;18.83;;;7.63;;
24147;SDS011;12309;51.450;-2.624;2023-05-20T04:44:42;15.80;;;7.77;;
24147;SDS011;12309;51.450;-2.624;2023-05-20T04:47:10;19.80;;;8.57;;
24147;SDS011;12309;51.450;-2.624;2023-05-20T04:49:35;16.47;;;7.83;;
24147;SDS011;12309;51.450;-2.624;2023-05-20T04:52:02;20.90;;;9.13;;
24147;SDS011;12309;51.450;-2.624;2023-05-20T04:54:28;16.00;;;8.13;;
24147;SDS011;12309;51.450;-2.624;2023-05-20T04:56:54;15.33;;;8.47;;
24147;SDS011;12309;51.450;-2.624;2023-05-20T04:59:20;13.57;;;7.53;;
24147;SDS011;12309;51.450;-2.624;2023-05-20T05:01:46;21.23;;;8.40;;
24147;SDS011;12309;51.450;-2.624;2023-05-20T05:04:12;16.57;;;8.40;;
24147;SDS011;12309;51.450;-2.624;2023-05-20T05:06:37;19.73;;;9.03;;
24147;SDS011;12309;51.450;-2.624;2023-05-20T05:09:03;18.03;;;9.17;;
24147;SDS011;12309;51.450;-2.624;2023-05-20T05:11:29;19.13;;;9.10;;
24147;SDS011;12309;51.450;-2.624;2023-05-20T05:13:55;16.77;;;9.13;;
24147;SDS011;12309;51.450;-2.624;2023-05-20T05:16:21;17.90;;;8.50;;
24147;SDS011;12309;51.450;-2.624;2023-05-20T05:18:47;19.20;;;8.63;;
24147;SDS011;12309;51.450;-2.624;2023-05-20T05:21:12;14.13;;;8.07;;
24147;SDS011;12309;51.450;-2.624;2023-05-20T05:23:38;16.57;;;8.57;;
24147;SDS011;12309;51.450;-2.624;2023-05-20T05:26:03;19.73;;;7.53;;
24147;SDS011;12309;51.450;-2.624;2023-05-20T05:28:29;17.27;;;8.33;;
24147;SDS011;12309;51.450;-2.624;2023-05-20T05:30:55;16.90;;;7.93;;
24147;SDS011;12309;51.450;-2.624;2023-05-20T05:33:21;17.53;;;8.17;;
24147;SDS011;12309;51.450;-2.624;2023-05-20T05:35:46;14.00;;;7.73;;
24147;SDS011;12309;51.450;-2.624;2023-05-20T05:38:12;17.53;;;8.23;;
24147;SDS011;12309;51.450;-2.624;2023-05-20T05:40:38;16.67;;;7.73;;
24147;SDS011;12309;51.450;-2.624;2023-05-20T05:43:04;19.50;;;8.47;;
24147;SDS011;12309;51.450;-2.624;2023-05-20T05:45:30;16.57;;;7.70;;
24147;SDS011;12309;51.450;-2.624;2023-05-20T05:47:55;14.67;;;7.60;;
24147;SDS011;12309;51.450;-2.624;2023-05-20T05:50:21;16.77;;;7.67;;
24147;SDS011;12309;51.450;-2.624;2023-05-20T05:52:46;17.03;;;7.83;;
24147;SDS011;12309;51.450;-2.624;2023-05-20T05:55:12;15.00;;;7.20;;
24147;SDS011;12309;51.450;-2.624;2023-05-20T05:57:38;22.47;;;7.63;;
24147;SDS011;12309;51.450;-2.624;2023-05-20T06:00:03;19.33;;;7.30;;
24147;SDS011;12309;51.450;-2.624;2023-05-20T06:02:30;19.57;;;8.00;;
24147;SDS011;12309;51.450;-2.624;2023-05-20T06:05:00;21.87;;;8.07;;
24147;SDS011;12309;51.450;-2.624;2023-05-20T06:07:29;17.93;;;7.10;;
24147;SDS011;12309;51.450;-2.624;2023-05-20T06:09:54;16.93;;;7.27;;
24147;SDS011;12309;51.450;-2.624;2023-05-20T06:12:20;16.47;;;7.63;;
24147;SDS011;12309;51.450;-2.624;2023-05-20T06:14:46;19.00;;;7.70;;
24147;SDS011;12309;51.450;-2.624;2023-05-20T06:17:12;18.57;;;7.47;;
24147;SDS011;12309;51.450;-2.624;2023-05-20T06:19:38;16.97;;;7.93;;
24147;SDS011;12309;51.450;-2.624;2023-05-20T06:22:03;19.90;;;7.73;;
24147;SDS011;12309;51.450;-2.624;2023-05-20T06:24:29;19.33;;;7.80;;
24147;SDS011;12309;51.450;-2.624;2023-05-20T06:26:55;23.93;;;7.17;;
24147;SDS011;12309;51.450;-2.624;2023-05-20T06:29:22;15.87;;;7.33;;
24147;SDS011;12309;51.450;-2.624;2023-05-20T06:31:48;15.43;;;7.20;;
24147;SDS011;12309;51.450;-2.624;2023-05-20T06:34:13;19.67;;;7.37;;
24147;SDS011;12309;51.450;-2.624;2023-05-20T06:36:39;19.33;;;7.23;;
24147;SDS011;12309;51.450;-2.624;2023-05-20T06:39:05;20.40;;;7.97;;
24147;SDS011;12309;51.450;-2.624;2023-05-20T06:41:36;18.37;;;7.90;;
24147;SDS011;12309;51.450;-2.624;2023-05-20T06:44:02;18.97;;;7.97;;
24147;SDS011;12309;51.450;-2.624;2023-05-20T06:46:28;15.93;;;7.40;;
24147;SDS011;12309;51.450;-2.624;2023-05-20T06:48:53;18.60;;;7.90;;
24147;SDS011;12309;51.450;-2.624;2023-05-20T06:51:19;20.80;;;7.60;;
24147;SDS011;12309;51.450;-2.624;2023-05-20T06:53:45;17.40;;;7.43;;
24147;SDS011;12309;51.450;-2.624;2023-05-20T06:56:10;20.70;;;7.57;;
24147;SDS011;12309;51.450;-2.624;2023-05-20T06:58:36;22.13;;;7.97;;
24147;SDS011;12309;51.450;-2.624;2023-05-20T07:01:01;13.20;;;6.93;;
24147;SDS011;12309;51.450;-2.624;2023-05-20T07:03:27;20.00;;;7.23;;
24147;SDS011;12309;51.450;-2.624;2023-05-20T07:05:53;18.47;;;6.87;;
24147;SDS011;12309;51.450;-2.624;2023-05-20T07:08:18;14.43;;;6.97;;
24147;SDS011;12309;51.450;-2.624;2023-05-20T07:10:44;18.10;;;7.50;;
24147;SDS011;12309;51.450;-2.624;2023-05-20T07:13:10;21.37;;;7.17;;
24147;SDS011;12309;51.450;-2.624;2023-05-20T07:15:36;16.97;;;7.43;;
24147;SDS011;12309;51.450;-2.624;2023-05-20T07:18:02;14.57;;;7.17;;
24147;SDS011;12309;51.450;-2.624;2023-05-20T07:20:27;13.30;;;7.17;;
24147;SDS011;12309;51.450;-2.624;2023-05-20T07:22:53;20.97;;;6.63;;
24147;SDS011;12309;51.450;-2.624;2023-05-20T07:25:18;16.73;;;6.93;;
24147;SDS011;12309;51.450;-2.624;2023-05-20T07:27:44;19.55;;;7.60;;
24147;SDS011;12309;51.450;-2.624;2023-05-20T07:30:10;15.20;;;7.37;;
24147;SDS011;12309;51.450;-2.624;2023-05-20T07:32:35;19.43;;;7.37;;
24147;SDS011;12309;51.450;-2.624;2023-05-20T07:35:01;12.93;;;6.23;;
24147;SDS011;12309;51.450;-2.624;2023-05-20T07:37:27;14.48;;;6.18;;
24147;SDS011;12309;51.450;-2.624;2023-05-20T07:39:52;15.33;;;6.80;;
24147;SDS011;12309;51.450;-2.624;2023-05-20T07:42:18;14.32;;;5.50;;
24147;SDS011;12309;51.450;-2.624;2023-05-20T07:44:43;11.25;;;5.18;;
24147;SDS011;12309;51.450;-2.624;2023-05-20T07:47:09;10.53;;;5.80;;
24147;SDS011;12309;51.450;-2.624;2023-05-20T07:49:35;14.87;;;5.73;;
24147;SDS011;12309;51.450;-2.624;2023-05-20T07:52:00;16.10;;;5.70;;
24147;SDS011;12309;51.450;-2.624;2023-05-20T07:54:26;16.95;;;6.18;;
24147;SDS011;12309;51.450;-2.624;2023-05-20T07:56:51;14.68;;;6.13;;
24147;SDS011;12309;51.450;-2.624;2023-05-20T07:59:17;13.38;;;5.82;;
24147;SDS011;12309;51.450;-2.624;2023-05-20T08:01:43;13.57;;;5.40;;
24147;SDS011;12309;51.450;-2.624;2023-05-20T08:04:08;14.70;;;5.28;;
24147;SDS011;12309;51.450;-2.624;2023-05-20T08:06:34;13.77;;;5.43;;
24147;SDS011;12309;51.450;-2.624;2023-05-20T08:09:01;15.43;;;5.47;;
24147;SDS011;12309;51.450;-2.624;2023-05-20T08:11:27;12.88;;;4.78;;
24147;SDS011;12309;51.450;-2.624;2023-05-20T08:13:53;10.27;;;4.70;;
24147;SDS011;12309;51.450;-2.624;2023-05-20T08:16:19;13.98;;;5.15;;
24147;SDS011;12309;51.450;-2.624;2023-05-20T08:18:46;11.02;;;4.30;;
24147;SDS011;12309;51.450;-2.624;2023-05-20T08:21:11;10.95;;;4.55;;
24147;SDS011;12309;51.450;-2.624;2023-05-20T08:23:38;15.65;;;5.15;;
24147;SDS011;12309;51.450;-2.624;2023-05-20T08:26:03;13.93;;;5.35;;
24147;SDS011;12309;51.450;-2.624;2023-05-20T08:28:29;10.60;;;5.82;;
24147;SDS011;12309;51.450;-2.624;2023-05-20T08:30:55;13.40;;;5.97;;
24147;SDS011;12309;51.450;-2.624;2023-05-20T08:33:22;16.77;;;5.60;;
24147;SDS011;12309;51.450;-2.624;2023-05-20T08:35:47;12.45;;;5.97;;
24147;SDS011;12309;51.450;-2.624;2023-05-20T08:38:13;18.10;;;6.10;;
24147;SDS011;12309;51.450;-2.624;2023-05-20T08:40:39;13.90;;;5.60;;
24147;SDS011;12309;51.450;-2.624;2023-05-20T08:43:05;11.55;;;5.20;;
24147;SDS011;12309;51.450;-2.624;2023-05-20T08:45:31;10.48;;;5.63;;
24147;SDS011;12309;51.450;-2.624;2023-05-20T08:47:57;13.30;;;5.22;;
24147;SDS011;12309;51.450;-2.624;2023-05-20T08:50:24;9.55;;;5.60;;
24147;SDS011;12309;51.450;-2.624;2023-05-20T08:52:49;10.38;;;5.00;;
24147;SDS011;12309;51.450;-2.624;2023-05-20T08:55:29;11.27;;;5.10;;
24147;SDS011;12309;51.450;-2.624;2023-05-20T08:58:06;10.57;;;5.63;;
24147;SDS011;12309;51.450;-2.624;2023-05-20T09:00:33;10.00;;;6.20;;
24147;SDS011;12309;51.450;-2.624;2023-05-20T09:02:58;12.27;;;6.13;;
24147;SDS011;12309;51.450;-2.624;2023-05-20T09:05:24;13.52;;;5.32;;
24147;SDS011;12309;51.450;-2.624;2023-05-20T09:07:51;10.02;;;6.03;;
24147;SDS011;12309;51.450;-2.624;2023-05-20T09:10:17;13.75;;;5.97;;
24147;SDS011;12309;51.450;-2.624;2023-05-20T09:12:44;11.18;;;5.32;;
24147;SDS011;12309;51.450;-2.624;2023-05-20T09:15:09;11.05;;;5.30;;
24147;SDS011;12309;51.450;-2.624;2023-05-20T09:17:35;11.68;;;5.35;;
24147;SDS011;12309;51.450;-2.624;2023-05-20T09:20:11;13.73;;;5.72;;
24147;SDS011;12309;51.450;-2.624;2023-05-20T09:22:38;12.50;;;5.43;;
24147;SDS011;12309;51.450;-2.624;2023-05-20T09:25:04;16.20;;;5.97;;
24147;SDS011;12309;51.450;-2.624;2023-05-20T09:27:30;13.88;;;5.22;;
24147;SDS011;12309;51.450;-2.624;2023-05-20T09:29:56;12.88;;;5.50;;
24147;SDS011;12309;51.450;-2.624;2023-05-20T09:32:22;10.50;;;4.97;;
24147;SDS011;12309;51.450;-2.624;2023-05-20T09:34:50;9.88;;;4.22;;
24147;SDS011;12309;51.450;-2.624;2023-05-20T09:37:16;10.70;;;5.22;;
24147;SDS011;12309;51.450;-2.624;2023-05-20T09:39:55;13.05;;;5.32;;
24147;SDS011;12309;51.450;-2.624;2023-05-20T09:42:28;12.13;;;4.68;;
24147;SDS011;12309;51.450;-2.624;2023-05-20T09:45:06;10.57;;;4.63;;
24147;SDS011;12309;51.450;-2.624;2023-05-20T09:47:37;9.85;;;4.40;;
24147;SDS011;12309;51.450;-2.624;2023-05-20T09:50:04;13.02;;;4.75;;
24147;SDS011;12309;51.450;-2.624;2023-05-20T09:52:32;10.55;;;4.60;;
24147;SDS011;12309;51.450;-2.624;2023-05-20T09:55:01;10.40;;;4.85;;
24147;SDS011;12309;51.450;-2.624;2023-05-20T09:57:30;7.40;;;4.60;;
24147;SDS011;12309;51.450;-2.624;2023-05-20T09:59:59;12.13;;;4.22;;
24147;SDS011;12309;51.450;-2.624;2023-05-20T10:02:28;9.05;;;4.20;;
24147;SDS011;12309;51.450;-2.624;2023-05-20T10:04:55;11.25;;;4.55;;
24147;SDS011;12309;51.450;-2.624;2023-05-20T10:11:09;8.48;;;4.32;;
24147;SDS011;12309;51.450;-2.624;2023-05-20T10:18:49;11.18;;;4.28;;
24147;SDS011;12309;51.450;-2.624;2023-05-20T10:21:20;8.68;;;4.13;;
24147;SDS011;12309;51.450;-2.624;2023-05-20T10:23:48;10.77;;;3.67;;
24147;SDS011;12309;51.450;-2.624;2023-05-20T10:26:15;11.85;;;3.80;;
24147;SDS011;12309;51.450;-2.624;2023-05-20T10:28:41;10.90;;;3.72;;
24147;SDS011;12309;51.450;-2.624;2023-05-20T10:31:21;7.40;;;3.90;;
24147;SDS011;12309;51.450;-2.624;2023-05-20T10:33:47;9.23;;;3.47;;
24147;SDS011;12309;51.450;-2.624;2023-05-20T10:36:26;6.53;;;4.05;;
24147;SDS011;12309;51.450;-2.624;2023-05-20T10:38:54;8.27;;;4.15;;
24147;SDS011;12309;51.450;-2.624;2023-05-20T10:41:25;8.70;;;3.80;;
24147;SDS011;12309;51.450;-2.624;2023-05-20T10:43:59;13.07;;;4.13;;
24147;SDS011;12309;51.450;-2.624;2023-05-20T10:46:25;8.18;;;3.83;;
24147;SDS011;12309;51.450;-2.624;2023-05-20T10:48:51;12.32;;;3.78;;
24147;SDS011;12309;51.450;-2.624;2023-05-20T10:51:16;7.10;;;3.78;;
24147;SDS011;12309;51.450;-2.624;2023-05-20T10:53:44;7.82;;;3.92;;
24147;SDS011;12309;51.450;-2.624;2023-05-20T10:56:19;8.45;;;3.83;;
24147;SDS011;12309;51.450;-2.624;2023-05-20T10:58:48;13.10;;;3.95;;
24147;SDS011;12309;51.450;-2.624;2023-05-20T11:01:15;11.95;;;3.97;;
24147;SDS011;12309;51.450;-2.624;2023-05-20T11:03:43;8.05;;;3.38;;
24147;SDS011;12309;51.450;-2.624;2023-05-20T11:06:13;9.38;;;3.70;;
24147;SDS011;12309;51.450;-2.624;2023-05-20T11:08:39;8.82;;;3.50;;
24147;SDS011;12309;51.450;-2.624;2023-05-20T11:11:05;7.35;;;4.05;;
24147;SDS011;12309;51.450;-2.624;2023-05-20T11:13:32;10.95;;;4.18;;
24147;SDS011;12309;51.450;-2.624;2023-05-20T11:15:57;12.18;;;3.88;;
24147;SDS011;12309;51.450;-2.624;2023-05-20T11:18:25;8.85;;;3.40;;
24147;SDS011;12309;51.450;-2.624;2023-05-20T11:20:54;8.65;;;3.78;;
24147;SDS011;12309;51.450;-2.624;2023-05-20T11:23:20;10.07;;;3.40;;
24147;SDS011;12309;51.450;-2.624;2023-05-20T11:25:51;9.98;;;3.70;;
24147;SDS011;12309;51.450;-2.624;2023-05-20T11:28:20;9.25;;;3.90;;
24147;SDS011;12309;51.450;-2.624;2023-05-20T11:30:47;10.40;;;3.75;;
24147;SDS011;12309;51.450;-2.624;2023-05-20T11:33:14;8.48;;;3.38;;
24147;SDS011;12309;51.450;-2.624;2023-05-20T11:38:20;8.48;;;3.88;;
24147;SDS011;12309;51.450;-2.624;2023-05-20T11:40:52;9.38;;;3.85;;
24147;SDS011;12309;51.450;-2.624;2023-05-20T11:43:19;9.35;;;3.95;;
24147;SDS011;12309;51.450;-2.624;2023-05-20T11:45:50;9.35;;;2.95;;
24147;SDS011;12309;51.450;-2.624;2023-05-20T11:48:20;7.05;;;3.70;;
24147;SDS011;12309;51.450;-2.624;2023-05-20T11:50:46;10.18;;;3.90;;
24147;SDS011;12309;51.450;-2.624;2023-05-20T11:53:19;8.13;;;3.33;;
24147;SDS011;12309;51.450;-2.624;2023-05-20T11:56:04;9.07;;;3.97;;
24147;SDS011;12309;51.450;-2.624;2023-05-20T11:58:30;13.23;;;3.97;;
24147;SDS011;12309;51.450;-2.624;2023-05-20T12:00:56;8.82;;;3.17;;
24147;SDS011;12309;51.450;-2.624;2023-05-20T12:03:22;7.88;;;3.38;;
24147;SDS011;12309;51.450;-2.624;2023-05-20T12:05:48;7.70;;;3.38;;
24147;SDS011;12309;51.450;-2.624;2023-05-20T12:08:15;11.48;;;3.60;;
24147;SDS011;12309;51.450;-2.624;2023-05-20T12:10:41;8.45;;;3.33;;
24147;SDS011;12309;51.450;-2.624;2023-05-20T12:13:08;8.63;;;4.22;;
24147;SDS011;12309;51.450;-2.624;2023-05-20T12:15:36;9.35;;;3.97;;
24147;SDS011;12309;51.450;-2.624;2023-05-20T12:18:02;7.78;;;3.88;;
24147;SDS011;12309;51.450;-2.624;2023-05-20T12:20:28;9.00;;;3.38;;
24147;SDS011;12309;51.450;-2.624;2023-05-20T12:22:55;11.40;;;4.38;;
24147;SDS011;12309;51.450;-2.624;2023-05-20T12:25:21;8.95;;;4.32;;
24147;SDS011;12309;51.450;-2.624;2023-05-20T12:27:48;9.95;;;4.25;;
24147;SDS011;12309;51.450;-2.624;2023-05-20T12:30:23;12.52;;;4.20;;
24147;SDS011;12309;51.450;-2.624;2023-05-20T12:32:49;10.40;;;3.78;;
24147;SDS011;12309;51.450;-2.624;2023-05-20T12:35:16;9.98;;;4.30;;
24147;SDS011;12309;51.450;-2.624;2023-05-20T12:37:46;10.50;;;3.58;;
24147;SDS011;12309;51.450;-2.624;2023-05-20T12:40:12;14.90;;;4.85;;
24147;SDS011;12309;51.450;-2.624;2023-05-20T12:42:38;10.15;;;3.67;;
24147;SDS011;12309;51.450;-2.624;2023-05-20T12:45:04;9.02;;;3.35;;
24147;SDS011;12309;51.450;-2.624;2023-05-20T12:47:31;10.23;;;4.03;;
24147;SDS011;12309;51.450;-2.624;2023-05-20T12:49:58;8.10;;;3.40;;
24147;SDS011;12309;51.450;-2.624;2023-05-20T12:52:24;8.27;;;2.90;;
24147;SDS011;12309;51.450;-2.624;2023-05-20T12:54:50;11.27;;;4.50;;
24147;SDS011;12309;51.450;-2.624;2023-05-20T12:57:17;8.93;;;3.38;;
24147;SDS011;12309;51.450;-2.624;2023-05-20T12:59:43;8.18;;;3.67;;
24147;SDS011;12309;51.450;-2.624;2023-05-20T13:02:09;7.53;;;3.85;;
24147;SDS011;12309;51.450;-2.624;2023-05-20T13:04:35;11.48;;;3.70;;
24147;SDS011;12309;51.450;-2.624;2023-05-20T13:07:01;7.68;;;3.17;;
24147;SDS011;12309;51.450;-2.624;2023-05-20T13:09:27;7.30;;;3.40;;
24147;SDS011;12309;51.450;-2.624;2023-05-20T13:11:53;7.30;;;3.40;;
24147;SDS011;12309;51.450;-2.624;2023-05-20T13:14:18;8.02;;;3.63;;
24147;SDS011;12309;51.450;-2.624;2023-05-20T13:16:45;9.15;;;3.47;;
24147;SDS011;12309;51.450;-2.624;2023-05-20T13:19:13;8.25;;;3.70;;
24147;SDS011;12309;51.450;-2.624;2023-05-20T13:21:39;7.30;;;3.08;;
24147;SDS011;12309;51.450;-2.624;2023-05-20T13:24:05;6.38;;;2.80;;
24147;SDS011;12309;51.450;-2.624;2023-05-20T13:26:30;9.18;;;3.70;;
24147;SDS011;12309;51.450;-2.624;2023-05-20T13:28:56;8.90;;;3.08;;
24147;SDS011;12309;51.450;-2.624;2023-05-20T13:31:22;8.70;;;3.38;;
24147;SDS011;12309;51.450;-2.624;2023-05-20T13:33:48;12.55;;;3.40;;
24147;SDS011;12309;51.450;-2.624;2023-05-20T13:36:14;8.93;;;3.00;;
24147;SDS011;12309;51.450;-2.624;2023-05-20T13:38:39;8.57;;;2.90;;
24147;SDS011;12309;51.450;-2.624;2023-05-20T13:41:05;9.13;;;3.17;;
24147;SDS011;12309;51.450;-2.624;2023-05-20T13:43:31;11.02;;;3.03;;
24147;SDS011;12309;51.450;-2.624;2023-05-20T13:45:57;5.13;;;2.50;;
24147;SDS011;12309;51.450;-2.624;2023-05-20T13:48:23;9.43;;;3.33;;
24147;SDS011;12309;51.450;-2.624;2023-05-20T13:50:48;8.38;;;3.10;;
24147;SDS011;12309;51.450;-2.624;2023-05-20T13:53:14;8.80;;;2.80;;
24147;SDS011;12309;51.450;-2.624;2023-05-20T13:55:39;10.32;;;3.05;;
24147;SDS011;12309;51.450;-2.624;2023-05-20T13:58:05;6.97;;;2.65;;
24147;SDS011;12309;51.450;-2.624;2023-05-20T14:00:37;6.65;;;2.58;;
24147;SDS011;12309;51.450;-2.624;2023-05-20T14:03:03;7.18;;;2.55;;
24147;SDS011;12309;51.450;-2.624;2023-05-20T14:05:29;9.43;;;3.00;;
24147;SDS011;12309;51.450;-2.624;2023-05-20T14:07:56;7.88;;;3.10;;
24147;SDS011;12309;51.450;-2.624;2023-05-20T14:10:22;5.18;;;2.60;;
24147;SDS011;12309;51.450;-2.624;2023-05-20T14:12:48;6.20;;;2.70;;
24147;SDS011;12309;51.450;-2.624;2023-05-20T14:15:13;8.32;;;2.95;;
24147;SDS011;12309;51.450;-2.624;2023-05-20T14:17:39;6.93;;;2.55;;
24147;SDS011;12309;51.450;-2.624;2023-05-20T14:20:06;6.50;;;2.47;;
24147;SDS011;12309;51.450;-2.624;2023-05-20T14:22:32;7.30;;;2.28;;
24147;SDS011;12309;51.450;-2.624;2023-05-20T14:24:58;6.22;;;2.30;;
24147;SDS011;12309;51.450;-2.624;2023-05-20T14:27:24;6.28;;;2.55;;
24147;SDS011;12309;51.450;-2.624;2023-05-20T14:29:50;6.72;;;2.70;;
24147;SDS011;12309;51.450;-2.624;2023-05-20T14:32:16;4.88;;;2.58;;
24147;SDS011;12309;51.450;-2.624;2023-05-20T14:34:42;8.48;;;2.72;;